Gas City, IN

10:59 AM EST on November 28, 2014 (GMT -0500)
Anderson Municipal-Darlington | Change Station
CLOSE
Current Station
Airport
Location: Anderson,
Elevation: 919 ft
Nearby Weather Stations

Elev 919 ft 40.11 °N, 85.61 °W | Updated 1 hour ago

Snow
Snow
25 °F
Feels Like 14 °F
N
12
Wind Variable Wind from SSE

Today
High -- | Low -- °F
--% Chance of Precip.
Yesterday
High -- | Low -- °F
Precip. -- in
7:43 AM 5:17 PM
Waxing Crescent, 41% visible
Pressure 30.35 in
Visibility 10.0 miles
Clouds Overcast 1400 ft
Windchill 14 °F
Dew Point 19 °F
Humidity 80%
Rainfall 0.00 in
Snow Depth Not available.
UV 0 out of 12
Pollen .10 out of 12
Air Quality Not available.
Flu Activity Not available.
METAR KAID 281448Z 16010KT 10SM OVC014 M04/M07 A3035

More Conditions Fewer Conditions

Pressure 30.35 in
Visibility 10.0 miles
Clouds Overcast 1400 ft
Windchill 14 °F
Dew Point 19 °F
Humidity 80%
Rainfall 0.00 in
Snow Depth Not available.
UV 0 out of 12
Pollen .10 out of 12
Air Quality Not available.
Flu Activity Not available.
METAR KAID 281448Z 16010KT 10SM OVC014 M04/M07 A3035

More Conditions Fewer Conditions

10-Day Weather Forecast

Almanac

Astronomy

Nov. 28, 2014 Rise Set
Actual Time
Civil Twilight
Nautical Twilight
Astronomical Twilight
Moon
Length of Visible Light
Length of Day
Tomorrow will be .
, % of the Moon is Illuminated

Today's Extremes

State Highs State Lows

Community

WunderPhotos

Upload Photos

1,774,234 photos uploaded!

WunderBlogs® & News

Nearby

Air Quality

  Air Quality AQ Index Pollutant
Not available.

Snow Depth

Station Depth Elevation

Earthquake Activity

City Distance Mag. Time & Date
Minimum magnitude displayed is 2.5.

Coastal Water Temperatures

Place Temperature

Nearby Weather Stations